Time;durP1;ratioP1;P1;durP2;ratioP2;P2;SDS_P1;SDS_P2;PMS_P1;PMS_P2;Temp;Humidity;BMP_temperature;BMP_pressure;BME280_temperature;BME280_humidity;BME280_pressure;Samples;Min_cycle;Max_cycle;Signal;HPM_P1;HPM_P2
2023/09/03 00:00:54;;;;;;;12.10;10.90;;;20.50;99.90;;;;;;5061228;28;20208;-73
2023/09/03 00:03:21;;;;;;;12.38;11.10;;;20.40;99.90;;;;;;5061247;28;20193;-72
2023/09/03 00:05:51;;;;;;;13.23;11.82;;;20.40;99.90;;;;;;5061028;28;20231;-73
2023/09/03 00:08:17;;;;;;;13.13;11.73;;;20.30;99.90;;;;;;5061452;28;20260;-73
2023/09/03 00:10:49;;;;;;;13.15;11.75;;;20.30;99.90;;;;;;5060820;28;20250;-73
2023/09/03 00:13:17;;;;;;;12.50;11.30;;;20.30;99.90;;;;;;5061416;28;20169;-73
2023/09/03 00:15:43;;;;;;;12.90;11.45;;;20.30;99.90;;;;;;5060804;28;20249;-71
2023/09/03 00:18:11;;;;;;;13.55;12.18;;;20.30;99.90;;;;;;5078637;28;20214;-73
2023/09/03 00:20:37;;;;;;;12.57;11.18;;;20.20;99.90;;;;;;5061390;28;20200;-71
2023/09/03 00:23:09;;;;;;;14.10;12.70;;;20.20;99.90;;;;;;5061202;28;20173;-72
2023/09/03 00:25:36;;;;;;;13.27;11.98;;;20.20;99.90;;;;;;5061100;28;20180;-72
2023/09/03 00:28:02;;;;;;;12.75;11.52;;;20.20;99.90;;;;;;5060973;28;20161;-73
2023/09/03 00:30:28;;;;;;;13.30;11.80;;;20.20;99.90;;;;;;5061148;28;20259;-73
2023/09/03 00:32:55;;;;;;;14.05;12.55;;;20.20;99.90;;;;;;5060912;28;20272;-72
2023/09/03 00:35:29;;;;;;;13.20;11.80;;;20.20;99.90;;;;;;5057299;28;20169;-73
2023/09/03 00:37:54;;;;;;;13.40;12.05;;;20.10;99.90;;;;;;5068700;28;20227;-73
2023/09/03 00:40:20;;;;;;;13.57;12.15;;;20.10;99.90;;;;;;5080646;28;20201;-73
2023/09/03 00:42:46;;;;;;;14.20;11.77;;;20.10;99.90;;;;;;5080646;28;20195;-72
2023/09/03 00:45:11;;;;;;;14.73;13.13;;;20.10;99.90;;;;;;5080503;28;20168;-73
2023/09/03 00:47:38;;;;;;;13.43;12.13;;;20.00;99.90;;;;;;5080116;28;20282;-72
2023/09/03 00:50:07;;;;;;;14.85;12.77;;;20.00;99.90;;;;;;5080119;28;20172;-72
2023/09/03 00:52:40;;;;;;;14.00;12.45;;;19.90;99.90;;;;;;5080380;28;20270;-73
2023/09/03 00:55:06;;;;;;;13.60;12.20;;;19.90;99.90;;;;;;5080148;28;20171;-73
2023/09/03 00:57:32;;;;;;;13.23;11.75;;;19.80;99.90;;;;;;5080463;28;20183;-73
2023/09/03 00:59:58;;;;;;;13.40;12.00;;;19.80;99.90;;;;;;5079578;28;20203;-72
2023/09/03 01:02:27;;;;;;;13.63;12.02;;;19.80;99.90;;;;;;5059914;28;20196;-73
2023/09/03 01:04:53;;;;;;;13.15;11.75;;;19.70;99.90;;;;;;5060232;28;20169;-72
2023/09/03 01:07:18;;;;;;;13.38;11.98;;;19.70;99.90;;;;;;5060007;28;20251;-73
2023/09/03 01:09:49;;;;;;;13.13;11.40;;;19.60;99.90;;;;;;5060008;28;20169;-72
2023/09/03 01:12:22;;;;;;;13.88;12.05;;;19.60;99.90;;;;;;5059979;28;20168;-72
2023/09/03 01:15:18;;;;;;;12.38;11.07;;;19.60;99.90;;;;;;5059592;28;20196;-70
2023/09/03 01:17:58;;;;;;;11.48;10.27;;;19.60;99.90;;;;;;5063540;28;20177;-72
2023/09/03 01:20:37;;;;;;;11.73;10.13;;;19.60;99.90;;;;;;5067550;28;20232;-72
2023/09/03 01:23:21;;;;;;;12.02;10.80;;;19.60;99.90;;;;;;5064342;28;20273;-73
2023/09/03 01:26:16;;;;;;;12.23;10.55;;;19.60;99.90;;;;;;5060560;28;20168;-73
2023/09/03 01:28:45;;;;;;;11.65;10.05;;;19.60;99.90;;;;;;5062097;28;20165;-73
2023/09/03 01:31:14;;;;;;;13.05;10.05;;;19.50;99.90;;;;;;5059539;28;20189;-73
2023/09/03 01:33:47;;;;;;;11.23;10.05;;;19.50;99.90;;;;;;5059444;28;20177;-72
2023/09/03 01:36:14;;;;;;;10.40;9.30;;;19.50;99.90;;;;;;5059372;28;20259;-72
2023/09/03 01:38:40;;;;;;;10.90;9.65;;;19.50;99.90;;;;;;5059340;28;20180;-72
2023/09/03 01:41:07;;;;;;;13.00;9.38;;;19.40;99.90;;;;;;5059189;28;20222;-72
2023/09/03 01:43:33;;;;;;;11.30;9.48;;;19.40;99.90;;;;;;5059357;28;20176;-71
2023/09/03 01:46:16;;;;;;;10.90;9.80;;;19.40;99.90;;;;;;5076628;28;20212;-73
2023/09/03 01:49:00;;;;;;;10.40;9.25;;;19.40;99.90;;;;;;5059320;28;20165;-73
2023/09/03 01:52:04;;;;;;;12.40;9.75;;;19.40;99.90;;;;;;5058725;28;20212;-73
2023/09/03 01:54:33;;;;;;;10.07;9.05;;;19.30;99.90;;;;;;5046661;28;20185;-73
2023/09/03 01:57:10;;;;;;;9.73;8.73;;;19.30;99.90;;;;;;5058982;28;20180;-72
2023/09/03 02:00:13;;;;;;;12.55;9.88;;;19.30;99.90;;;;;;5058309;28;20161;-72
2023/09/03 02:02:43;;;;;;;10.05;9.05;;;19.30;99.90;;;;;;5058966;28;20336;-73
2023/09/03 02:05:11;;;;;;;11.43;9.05;;;19.20;99.90;;;;;;5058616;28;20180;-73
2023/09/03 02:07:46;;;;;;;10.32;9.25;;;19.20;99.90;;;;;;5058757;28;20203;-72
2023/09/03 02:10:11;;;;;;;13.10;10.18;;;19.10;99.90;;;;;;5058620;28;20179;-73
2023/09/03 02:12:37;;;;;;;11.13;9.60;;;19.10;99.90;;;;;;5059078;28;20173;-71
2023/09/03 02:15:10;;;;;;;10.98;9.88;;;19.00;99.90;;;;;;5059020;28;20177;-73
2023/09/03 02:17:35;;;;;;;11.52;9.65;;;19.00;99.90;;;;;;5058716;28;20215;-73
2023/09/03 02:20:03;;;;;;;11.73;9.98;;;19.00;99.90;;;;;;5058841;28;20168;-73
2023/09/03 02:22:29;;;;;;;10.70;9.57;;;18.90;99.90;;;;;;5058324;28;20330;-72
2023/09/03 02:24:57;;;;;;;12.65;10.32;;;18.90;99.90;;;;;;5058488;28;20233;-72
2023/09/03 02:27:23;;;;;;;12.02;9.95;;;18.90;99.90;;;;;;5058392;28;20192;-73
2023/09/03 02:29:51;;;;;;;13.75;10.18;;;18.90;99.90;;;;;;5058205;28;20176;-72
2023/09/03 02:32:22;;;;;;;14.80;11.13;;;18.80;99.90;;;;;;5060008;28;20206;-73
2023/09/03 02:34:48;;;;;;;14.32;10.65;;;18.80;99.90;;;;;;5058368;28;20176;-74
2023/09/03 02:37:13;;;;;;;14.43;10.43;;;18.80;99.90;;;;;;5058255;28;20201;-74
2023/09/03 02:39:45;;;;;;;12.25;10.77;;;18.80;99.90;;;;;;5058885;28;20180;-74
2023/09/03 02:42:10;;;;;;;12.65;10.48;;;18.70;99.90;;;;;;5075681;28;20232;-74
2023/09/03 02:44:36;;;;;;;12.38;11.07;;;18.70;99.90;;;;;;5058380;28;20196;-73
2023/09/03 02:47:07;;;;;;;13.20;10.20;;;18.70;99.90;;;;;;5058147;28;20180;-74
2023/09/03 02:49:35;;;;;;;11.63;10.40;;;18.70;99.90;;;;;;5058580;28;20161;-74
2023/09/03 02:52:00;;;;;;;13.65;10.63;;;18.70;99.90;;;;;;5058006;28;20195;-69
2023/09/03 02:54:31;;;;;;;12.15;10.60;;;18.70;99.90;;;;;;5058607;28;20241;-74
2023/09/03 02:56:57;;;;;;;13.65;10.85;;;18.60;99.90;;;;;;5058418;28;20165;-74
2023/09/03 02:59:23;;;;;;;13.20;11.25;;;18.70;99.90;;;;;;5058260;28;20180;-74
2023/09/03 03:01:50;;;;;;;13.57;10.88;;;18.70;99.90;;;;;;5058216;28;20270;-74
2023/09/03 03:04:21;;;;;;;15.25;12.18;;;18.60;99.90;;;;;;5058275;28;20173;-74
2023/09/03 03:06:47;;;;;;;14.25;11.93;;;18.70;99.90;;;;;;5058248;28;20163;-74
2023/09/03 03:09:13;;;;;;;14.35;12.27;;;18.60;99.90;;;;;;5058076;28;20197;-74
2023/09/03 03:11:39;;;;;;;15.45;12.00;;;18.60;99.90;;;;;;5059254;28;20176;-73
2023/09/03 03:14:10;;;;;;;14.63;12.23;;;18.60;99.90;;;;;;5062435;28;20199;-74
2023/09/03 03:16:38;;;;;;;13.88;11.23;;;18.60;99.90;;;;;;5062347;28;20168;-74
2023/09/03 03:19:06;;;;;;;14.80;11.40;;;18.60;99.90;;;;;;5061976;28;20211;-74
2023/09/03 03:21:41;;;;;;;14.52;11.77;;;18.60;99.90;;;;;;5062317;28;20226;-74
2023/09/03 03:24:07;;;;;;;15.38;11.48;;;18.60;99.90;;;;;;5062313;28;20192;-74
2023/09/03 03:26:36;;;;;;;14.27;11.55;;;18.60;99.90;;;;;;5061841;28;20234;-74
2023/09/03 03:29:09;;;;;;;17.70;12.18;;;18.70;99.90;;;;;;5061995;28;20197;-74
2023/09/03 03:31:37;;;;;;;14.43;11.25;;;18.70;99.90;;;;;;5078833;28;20176;-74
2023/09/03 03:34:05;;;;;;;14.00;11.77;;;18.60;99.90;;;;;;5057909;28;20193;-74
2023/09/03 03:36:32;;;;;;;14.68;11.75;;;18.60;99.90;;;;;;5042223;28;20233;-74
2023/09/03 03:38:57;;;;;;;15.35;12.00;;;18.60;99.90;;;;;;5042170;28;20181;-74
2023/09/03 03:41:25;;;;;;;16.77;13.23;;;18.60;99.90;;;;;;5041966;28;20193;-71
2023/09/03 03:43:56;;;;;;;15.23;11.50;;;18.60;99.90;;;;;;5041704;28;20165;-74
2023/09/03 03:46:31;;;;;;;14.43;11.90;;;18.60;99.90;;;;;;5041643;28;20170;-74
2023/09/03 03:48:59;;;;;;;14.85;11.65;;;18.60;99.90;;;;;;5041575;28;20169;-74
2023/09/03 03:51:25;;;;;;;13.68;11.05;;;18.60;99.90;;;;;;5041646;28;20187;-73
2023/09/03 03:53:59;;;;;;;17.13;11.98;;;18.60;99.90;;;;;;5041446;28;20188;-74
2023/09/03 03:56:29;;;;;;;15.38;12.95;;;18.60;99.90;;;;;;5041313;28;20290;-74
2023/09/03 03:58:54;;;;;;;15.18;12.35;;;18.60;99.90;;;;;;5041467;28;20258;-73
2023/09/03 04:01:24;;;;;;;17.23;12.93;;;18.50;99.90;;;;;;5041784;28;20233;-74
2023/09/03 04:03:51;;;;;;;16.00;12.70;;;18.50;99.90;;;;;;5058031;28;20231;-74
2023/09/03 04:06:20;;;;;;;17.10;12.70;;;18.50;99.90;;;;;;5041455;28;20216;-73
2023/09/03 04:08:48;;;;;;;16.00;12.77;;;18.50;99.90;;;;;;5041223;28;20181;-74
2023/09/03 04:11:18;;;;;;;19.35;14.32;;;18.40;99.90;;;;;;5041222;28;20215;-74
2023/09/03 04:13:47;;;;;;;16.63;13.25;;;18.40;99.90;;;;;;5041593;28;20227;-74
2023/09/03 04:16:20;;;;;;;16.73;12.88;;;18.40;99.90;;;;;;5041199;28;20201;-74
2023/09/03 04:18:57;;;;;;;16.10;11.52;;;18.40;99.90;;;;;;5041496;28;20189;-73
2023/09/03 04:21:25;;;;;;;14.32;11.68;;;18.30;99.90;;;;;;5040752;28;20263;-74
2023/09/03 04:23:51;;;;;;;14.65;12.20;;;18.30;99.90;;;;;;5047651;28;20211;-74
2023/09/03 04:26:16;;;;;;;16.65;12.63;;;18.30;99.90;;;;;;5041040;28;20201;-74
2023/09/03 04:28:47;;;;;;;17.65;13.60;;;18.30;99.90;;;;;;5040853;28;20170;-74
2023/09/03 04:31:13;;;;;;;17.70;13.18;;;18.20;99.90;;;;;;5040654;28;20197;-74
2023/09/03 04:33:38;;;;;;;15.32;12.57;;;18.20;99.90;;;;;;5040481;28;20188;-74
2023/09/03 04:36:04;;;;;;;17.52;12.75;;;18.20;99.90;;;;;;5040647;28;20177;-74
2023/09/03 04:38:30;;;;;;;16.55;12.82;;;18.10;99.90;;;;;;5040920;28;20175;-74
2023/09/03 04:41:10;;;;;;;16.45;12.88;;;18.10;99.90;;;;;;5040704;28;20201;-74
2023/09/03 04:43:43;;;;;;;18.27;13.65;;;18.10;99.90;;;;;;5040923;28;20165;-73
2023/09/03 04:46:18;;;;;;;16.63;12.80;;;18.10;99.90;;;;;;5061563;28;20175;-74
2023/09/03 04:48:44;;;;;;;16.90;12.75;;;18.10;99.90;;;;;;5080677;28;20163;-74
2023/09/03 04:51:09;;;;;;;16.35;13.00;;;18.10;99.90;;;;;;5080647;28;20407;-74
2023/09/03 04:53:42;;;;;;;16.65;12.57;;;18.10;99.90;;;;;;5098267;28;20176;-74
2023/09/03 04:56:12;;;;;;;18.00;13.65;;;18.10;99.90;;;;;;5080687;28;20192;-74
2023/09/03 04:58:37;;;;;;;16.08;12.95;;;18.20;99.90;;;;;;5080320;28;20176;-74
2023/09/03 05:01:15;;;;;;;16.48;12.85;;;18.20;99.90;;;;;;5080294;28;20204;-74
2023/09/03 05:03:50;;;;;;;14.65;12.10;;;18.20;99.90;;;;;;5080126;28;20222;-74
2023/09/03 05:06:17;;;;;;;17.15;12.82;;;18.20;99.90;;;;;;5080337;28;20205;-74
2023/09/03 05:08:48;;;;;;;18.40;13.60;;;18.20;99.90;;;;;;5080115;28;20196;-74
2023/09/03 05:11:14;;;;;;;17.90;12.80;;;18.20;99.90;;;;;;5080044;28;20172;-74
2023/09/03 05:13:43;;;;;;;16.20;12.80;;;18.20;99.90;;;;;;5080154;28;20279;-74
2023/09/03 05:16:08;;;;;;;18.60;14.50;;;18.20;99.90;;;;;;5080053;28;20252;-74
2023/09/03 05:18:36;;;;;;;18.13;13.95;;;18.20;99.90;;;;;;5080100;28;20477;-74
2023/09/03 05:21:10;;;;;;;17.75;13.85;;;18.30;99.90;;;;;;5061422;28;20204;-75
2023/09/03 05:23:36;;;;;;;18.25;13.98;;;18.30;99.90;;;;;;5059969;28;20253;-74
2023/09/03 05:26:20;;;;;;;18.25;13.60;;;18.30;99.90;;;;;;5059936;28;20168;-74
2023/09/03 05:28:45;;;;;;;17.25;13.60;;;18.30;99.90;;;;;;5060014;28;20283;-74
2023/09/03 05:31:11;;;;;;;17.23;13.05;;;18.30;99.90;;;;;;5059967;28;20192;-74
2023/09/03 05:33:45;;;;;;;27.88;19.80;;;18.40;99.90;;;;;;5058863;28;20219;-74
2023/09/03 05:36:13;;;;;;;23.08;17.08;;;18.40;99.90;;;;;;5059933;28;20184;-75
2023/09/03 05:38:42;;;;;;;20.27;16.77;;;18.50;99.90;;;;;;5059478;28;20173;-74
2023/09/03 05:41:16;;;;;;;20.17;15.52;;;18.50;99.90;;;;;;5059667;28;20200;-73
2023/09/03 05:43:50;;;;;;;20.50;15.07;;;18.60;99.90;;;;;;5076254;28;20184;-74
2023/09/03 05:46:20;;;;;;;20.23;13.93;;;18.60;99.90;;;;;;5076281;28;20173;-75
2023/09/03 05:48:50;;;;;;;17.33;13.63;;;18.60;99.90;;;;;;5076086;28;20168;-73
2023/09/03 05:51:20;;;;;;;18.45;13.13;;;18.70;99.90;;;;;;5058981;28;20263;-74
2023/09/03 05:53:51;;;;;;;19.23;14.13;;;18.70;99.90;;;;;;5059474;28;20204;-74
2023/09/03 05:56:16;;;;;;;17.33;12.95;;;18.80;99.90;;;;;;5060131;28;20176;-74
2023/09/03 05:58:47;;;;;;;19.73;13.60;;;18.80;99.90;;;;;;5059125;28;20226;-74
2023/09/03 06:01:18;;;;;;;18.75;13.65;;;18.90;99.90;;;;;;5059433;28;20197;-74
2023/09/03 06:03:44;;;;;;;18.00;13.43;;;18.90;99.90;;;;;;5058778;28;20205;-74
2023/09/03 06:06:10;;;;;;;17.70;12.77;;;19.00;99.90;;;;;;5058726;28;20235;-74
2023/09/03 06:08:37;;;;;;;17.20;12.43;;;19.00;99.90;;;;;;5058866;28;20173;-73
2023/09/03 06:11:05;;;;;;;17.83;13.40;;;19.10;99.90;;;;;;5059098;28;20342;-73
2023/09/03 06:13:39;;;;;;;17.10;13.35;;;19.10;99.90;;;;;;5058983;28;20233;-74
2023/09/03 06:16:05;;;;;;;19.27;14.00;;;19.10;99.90;;;;;;5058831;28;20196;-74
2023/09/03 06:18:30;;;;;;;18.23;13.75;;;19.10;99.90;;;;;;5058822;28;20195;-73
2023/09/03 06:20:56;;;;;;;18.05;13.88;;;19.20;99.90;;;;;;5058509;28;20211;-74
2023/09/03 06:23:24;;;;;;;22.23;14.23;;;19.20;99.90;;;;;;5058660;28;20176;-74
2023/09/03 06:25:53;;;;;;;21.10;14.23;;;19.20;99.90;;;;;;5058783;28;20201;-74
2023/09/03 06:28:18;;;;;;;23.73;15.18;;;19.30;99.90;;;;;;5058498;28;20160;-74
2023/09/03 06:30:49;;;;;;;19.73;14.02;;;19.30;99.90;;;;;;5058602;28;20267;-74
2023/09/03 06:33:14;;;;;;;19.40;13.38;;;19.30;99.90;;;;;;5058374;28;20176;-74
2023/09/03 06:35:42;;;;;;;21.85;13.82;;;19.30;99.90;;;;;;5058486;28;20381;-74
2023/09/03 06:38:10;;;;;;;26.27;16.08;;;19.40;99.90;;;;;;5075711;28;20173;-73
2023/09/03 06:40:36;;;;;;;22.95;14.45;;;19.40;99.90;;;;;;5058360;28;20173;-74
2023/09/03 06:43:13;;;;;;;24.02;14.00;;;19.40;99.90;;;;;;5058979;28;20198;-71
2023/09/03 06:45:44;;;;;;;22.92;14.23;;;19.50;99.90;;;;;;5058223;28;20168;-72
2023/09/03 06:48:12;;;;;;;23.83;14.98;;;19.50;99.90;;;;;;5058019;28;20220;-74
2023/09/03 06:50:42;;;;;;;23.95;14.52;;;19.50;99.90;;;;;;5058013;28;20195;-72
2023/09/03 06:53:31;;;;;;;23.45;14.38;;;19.50;99.90;;;;;;5058148;28;20224;-72
2023/09/03 06:55:57;;;;;;;21.63;14.23;;;19.50;99.90;;;;;;5058475;28;20184;-72
2023/09/03 06:58:28;;;;;;;24.23;14.27;;;19.60;99.90;;;;;;5058270;28;20173;-73
2023/09/03 07:00:54;;;;;;;24.08;14.32;;;19.60;99.90;;;;;;5058156;28;20192;-72
2023/09/03 07:03:22;;;;;;;26.67;15.95;;;19.60;99.90;;;;;;5057891;28;20176;-72
2023/09/03 07:05:53;;;;;;;26.45;16.23;;;19.60;99.90;;;;;;5058041;28;20169;-73
2023/09/03 07:08:21;;;;;;;30.40;17.10;;;19.60;99.90;;;;;;5058074;28;20193;-73
2023/09/03 07:10:49;;;;;;;27.38;16.85;;;19.60;99.90;;;;;;5058156;28;20271;-73
2023/09/03 07:13:17;;;;;;;26.80;16.17;;;19.60;99.90;;;;;;5058142;28;20196;-72
2023/09/03 07:15:45;;;;;;;29.20;17.13;;;19.60;99.90;;;;;;5058242;28;20203;-72
2023/09/03 07:18:17;;;;;;;26.38;15.52;;;19.60;99.90;;;;;;5057596;28;20264;-73
2023/09/03 07:20:43;;;;;;;28.80;17.15;;;19.60;99.90;;;;;;5058052;28;20203;-72
2023/09/03 07:23:08;;;;;;;27.20;16.80;;;19.60;99.90;;;;;;5058076;28;20188;-73
2023/09/03 07:25:39;;;;;;;33.92;20.88;;;19.60;99.90;;;;;;5057886;28;20180;-73
2023/09/03 07:28:05;;;;;;;30.50;18.98;;;19.70;99.90;;;;;;5057847;28;20450;-73
2023/09/03 07:30:30;;;;;;;33.95;19.58;;;19.70;99.90;;;;;;5058036;28;20234;-73
2023/09/03 07:33:19;;;;;;;34.88;19.40;;;19.70;99.90;;;;;;5057882;28;20169;-73
2023/09/03 07:35:44;;;;;;;29.60;17.70;;;19.70;99.90;;;;;;5057751;28;20165;-73
2023/09/03 07:38:12;;;;;;;32.08;18.45;;;19.70;99.90;;;;;;5057741;28;20188;-73
2023/09/03 07:40:39;;;;;;;30.33;18.08;;;19.80;99.90;;;;;;5057787;28;20525;-73
2023/09/03 07:43:04;;;;;;;29.10;18.33;;;19.80;99.90;;;;;;5057713;28;20169;-73
2023/09/03 07:45:33;;;;;;;29.17;17.02;;;19.80;99.90;;;;;;5057449;28;20237;-73
2023/09/03 07:48:05;;;;;;;26.08;16.45;;;19.80;99.90;;;;;;5057704;28;20172;-73
2023/09/03 07:50:38;;;;;;;25.88;16.52;;;19.80;99.90;;;;;;5057556;28;20186;-74
2023/09/03 07:53:04;;;;;;;25.15;16.05;;;19.90;99.90;;;;;;5057575;28;20168;-73
2023/09/03 07:55:30;;;;;;;26.15;16.95;;;19.90;99.90;;;;;;5057380;28;20193;-73
2023/09/03 07:57:56;;;;;;;25.63;15.93;;;19.90;99.90;;;;;;5059016;28;20175;-73
2023/09/03 08:00:22;;;;;;;26.85;16.42;;;19.90;99.90;;;;;;5061390;28;20197;-73
2023/09/03 08:02:53;;;;;;;27.67;17.55;;;19.90;99.90;;;;;;5060812;28;20189;-73
2023/09/03 08:05:19;;;;;;;25.83;17.45;;;19.90;99.90;;;;;;5061075;28;20188;-73
2023/09/03 08:07:46;;;;;;;26.10;16.80;;;19.90;99.90;;;;;;5060997;28;20199;-73
2023/09/03 08:10:12;;;;;;;22.65;14.60;;;19.90;99.90;;;;;;5060648;28;20192;-73
2023/09/03 08:12:37;;;;;;;20.35;13.40;;;19.90;99.90;;;;;;5061247;28;20199;-73
2023/09/03 08:15:09;;;;;;;19.42;13.20;;;19.90;99.90;;;;;;5060913;28;20211;-73
2023/09/03 08:17:37;;;;;;;16.10;12.40;;;20.00;99.90;;;;;;5060776;28;20194;-73
2023/09/03 08:20:06;;;;;;;16.70;11.25;;;20.00;99.90;;;;;;5060720;28;20200;-73
2023/09/03 08:22:35;;;;;;;17.83;11.68;;;20.00;99.90;;;;;;5060959;28;20197;-72
2023/09/03 08:25:06;;;;;;;17.17;11.60;;;20.00;99.90;;;;;;5060598;28;20176;-73
2023/09/03 08:27:38;;;;;;;17.48;11.57;;;20.00;99.90;;;;;;5060350;28;20165;-73
2023/09/03 08:30:05;;;;;;;18.15;11.00;;;20.10;99.90;;;;;;5060575;28;20196;-73
2023/09/03 08:32:33;;;;;;;19.00;12.52;;;20.10;99.90;;;;;;5060467;28;20181;-73
2023/09/03 08:34:58;;;;;;;17.33;11.88;;;20.10;99.90;;;;;;5056996;28;20197;-73
2023/09/03 08:37:28;;;;;;;19.70;11.82;;;20.10;99.90;;;;;;5057063;28;20192;-73
2023/09/03 08:39:58;;;;;;;16.25;11.68;;;20.10;99.90;;;;;;5057129;28;20178;-72
2023/09/03 08:42:28;;;;;;;18.08;11.63;;;20.10;99.90;;;;;;5057676;28;20182;-73
2023/09/03 08:45:00;;;;;;;16.70;11.95;;;20.10;99.90;;;;;;5056971;28;20314;-73
2023/09/03 08:47:33;;;;;;;18.98;13.13;;;20.10;99.90;;;;;;5056992;28;20193;-73
2023/09/03 08:50:07;;;;;;;31.92;20.83;;;20.10;99.90;;;;;;5057374;28;20231;-71
2023/09/03 08:52:37;;;;;;;21.73;15.65;;;20.10;99.90;;;;;;5057089;28;20197;-71
2023/09/03 08:55:04;;;;;;;19.30;13.63;;;20.10;99.90;;;;;;5057021;28;20231;-72
2023/09/03 08:57:34;;;;;;;17.83;13.07;;;20.10;99.90;;;;;;5057200;28;20208;-73
2023/09/03 09:00:07;;;;;;;14.48;11.25;;;20.10;99.90;;;;;;5057324;28;20200;-73
2023/09/03 09:02:34;;;;;;;14.93;11.50;;;20.10;99.90;;;;;;5057042;28;20228;-73
2023/09/03 09:05:05;;;;;;;16.05;11.48;;;20.20;99.90;;;;;;5057014;28;20181;-72
2023/09/03 09:07:36;;;;;;;15.48;11.07;;;20.20;99.90;;;;;;5056724;28;20197;-73
2023/09/03 09:10:06;;;;;;;14.43;10.48;;;20.30;99.90;;;;;;5055471;28;20169;-73
2023/09/03 09:12:42;;;;;;;15.18;10.32;;;20.30;99.90;;;;;;5056683;28;20255;-73
2023/09/03 09:15:12;;;;;;;18.08;12.25;;;20.30;99.90;;;;;;5057001;28;20180;-72
2023/09/03 09:17:44;;;;;;;15.48;11.98;;;20.30;99.90;;;;;;5056670;28;20201;-71
2023/09/03 09:20:17;;;;;;;13.50;11.10;;;20.40;99.90;;;;;;5056828;28;20280;-72
2023/09/03 09:22:51;;;;;;;13.65;10.45;;;20.40;99.90;;;;;;5056356;28;20292;-73
2023/09/03 09:25:23;;;;;;;12.35;9.38;;;20.50;99.90;;;;;;5056658;28;20169;-73
2023/09/03 09:27:57;;;;;;;15.57;10.30;;;20.50;99.90;;;;;;5039293;28;20201;-73
2023/09/03 09:30:26;;;;;;;14.93;10.98;;;20.60;99.90;;;;;;5056678;28;20177;-73
2023/09/03 09:33:12;;;;;;;11.50;9.52;;;20.70;99.90;;;;;;5056255;28;20228;-72
2023/09/03 09:35:38;;;;;;;12.40;9.45;;;20.80;99.90;;;;;;5054117;28;20208;-73
2023/09/03 09:38:07;;;;;;;12.10;9.35;;;20.90;99.90;;;;;;5059533;28;20231;-73
2023/09/03 09:40:37;;;;;;;12.32;9.15;;;21.00;99.90;;;;;;5059387;28;20187;-73
2023/09/03 09:43:07;;;;;;;12.80;9.85;;;21.10;99.90;;;;;;5059624;28;20307;-72
2023/09/03 09:45:45;;;;;;;12.35;9.50;;;21.20;99.90;;;;;;5059460;28;20207;-72
2023/09/03 09:48:13;;;;;;;12.10;9.38;;;21.30;99.90;;;;;;5059165;28;20215;-72
2023/09/03 09:50:49;;;;;;;11.50;9.18;;;21.30;99.90;;;;;;5059163;28;20255;-72
2023/09/03 09:53:23;;;;;;;11.90;9.50;;;21.40;99.90;;;;;;5059251;28;20255;-73
2023/09/03 09:56:11;;;;;;;11.27;8.73;;;21.50;99.90;;;;;;5059230;28;20165;-73
2023/09/03 09:58:42;;;;;;;10.73;8.35;;;21.60;99.90;;;;;;5058699;28;20173;-73
2023/09/03 10:01:13;;;;;;;11.43;8.43;;;21.60;99.90;;;;;;5075700;28;20196;-73
2023/09/03 10:03:43;;;;;;;10.43;9.18;;;21.70;99.90;;;;;;5059213;28;20325;-73
2023/09/03 10:06:09;;;;;;;9.88;8.18;;;21.80;99.90;;;;;;5058880;28;20153;-72
2023/09/03 10:08:41;;;;;;;9.50;8.00;;;21.90;99.90;;;;;;5059121;28;20169;-74
2023/09/03 10:11:06;;;;;;;10.05;8.88;;;22.00;99.90;;;;;;5058911;28;20238;-73
2023/09/03 10:13:32;;;;;;;11.98;9.68;;;22.20;99.90;;;;;;5058475;28;20222;-72
2023/09/03 10:18:39;;;;;;;11.00;9.15;;;23.10;99.90;;;;;;5076484;28;20153;-73
2023/09/03 10:21:15;;;;;;;10.13;8.70;;;23.60;99.90;;;;;;5058255;28;20203;-73
2023/09/03 10:23:53;;;;;;;9.38;8.38;;;24.10;99.90;;;;;;5069209;28;20250;-73
2023/09/03 10:26:37;;;;;;;9.07;7.57;;;24.60;99.90;;;;;;5078813;28;20164;-74
2023/09/03 10:29:07;;;;;;;8.10;7.15;;;24.90;99.90;;;;;;5078597;28;20168;-72
2023/09/03 10:31:40;;;;;;;7.53;6.72;;;25.20;99.90;;;;;;5075054;28;20207;-72
2023/09/03 10:34:19;;;;;;;7.78;7.00;;;25.40;99.90;;;;;;5055158;28;20170;-72
2023/09/03 10:37:27;;;;;;;7.57;6.78;;;25.60;99.90;;;;;;5038590;28;20169;-72
2023/09/03 10:40:22;;;;;;;8.00;6.57;;;25.80;99.90;;;;;;5038292;28;20178;-72
2023/09/03 10:43:22;;;;;;;6.95;6.22;;;25.90;99.90;;;;;;5038606;28;20197;-73
2023/09/03 10:46:08;;;;;;;6.63;5.65;;;26.00;99.90;;;;;;5038377;28;20263;-72
2023/09/03 10:48:51;;;;;;;6.32;5.72;;;26.00;99.90;;;;;;5038436;28;20268;-73
2023/09/03 10:51:33;;;;;;;5.80;5.03;;;26.10;99.90;;;;;;5038303;28;20246;-73
2023/09/03 10:54:25;;;;;;;5.40;4.88;;;26.20;99.90;;;;;;5038401;28;20252;-72
2023/09/03 10:57:12;;;;;;;5.65;5.13;;;26.40;99.90;;;;;;5038286;28;20240;-72
2023/09/03 11:00:09;;;;;;;5.28;4.78;;;26.50;99.90;;;;;;5038291;28;20177;-73
2023/09/03 11:02:36;;;;;;;4.72;4.32;;;26.70;99.90;;;;;;5038180;28;20232;-73
2023/09/03 11:05:28;;;;;;;4.85;4.45;;;26.70;99.90;;;;;;5038222;28;20173;-73
2023/09/03 11:08:29;;;;;;;4.25;3.85;;;26.90;99.90;;;;;;5038524;28;20169;-73
2023/09/03 11:11:02;;;;;;;4.00;3.60;;;27.10;99.90;;;;;;5038083;28;20169;-74
2023/09/03 11:13:27;;;;;;;4.38;3.97;;;27.30;99.90;;;;;;5038191;28;20176;-73
2023/09/03 11:15:57;;;;;;;3.88;3.53;;;27.50;99.90;;;;;;5038161;28;20173;-73
2023/09/03 11:18:26;;;;;;;4.30;3.90;;;27.60;99.90;;;;;;5037868;28;20193;-73
2023/09/03 11:20:52;;;;;;;3.80;3.47;;;27.80;99.90;;;;;;5037902;28;20177;-74
2023/09/03 11:23:20;;;;;;;3.78;3.40;;;28.00;99.90;;;;;;5038222;28;20284;-73
2023/09/03 11:25:48;;;;;;;3.33;3.03;;;28.00;99.90;;;;;;5037918;28;20188;-73
2023/09/03 11:28:18;;;;;;;3.55;2.97;;;28.10;99.90;;;;;;5053041;28;20197;-73
2023/09/03 11:30:47;;;;;;;2.97;2.67;;;28.10;99.90;;;;;;5058065;28;20260;-72
2023/09/03 11:33:44;;;;;;;3.00;2.70;;;28.00;99.90;;;;;;5059713;28;20238;-72
2023/09/03 11:36:13;;;;;;;2.78;2.58;;;28.00;99.90;;;;;;5061721;28;20199;-73
2023/09/03 11:38:41;;;;;;;2.10;1.90;;;28.10;99.90;;;;;;5062010;28;20223;-73
2023/09/03 11:41:07;;;;;;;1.67;1.58;;;28.20;99.90;;;;;;5061774;28;20196;-73
2023/09/03 11:43:40;;;;;;;2.10;1.90;;;28.30;99.90;;;;;;5061634;28;20192;-72
2023/09/03 11:46:14;;;;;;;2.00;1.90;;;28.40;99.90;;;;;;5061510;28;20168;-73
2023/09/03 11:48:40;;;;;;;2.10;1.65;;;28.50;99.90;;;;;;5061877;28;20192;-73
2023/09/03 11:51:06;;;;;;;2.05;1.70;;;28.60;99.90;;;;;;5061236;28;20202;-73
2023/09/03 11:53:47;;;;;;;1.90;1.80;;;28.70;99.90;;;;;;5061281;28;20238;-73
2023/09/03 11:56:15;;;;;;;2.28;2.08;;;28.80;99.90;;;;;;5061417;28;20182;-73
2023/09/03 11:58:43;;;;;;;2.13;1.92;;;28.90;99.90;;;;;;5061688;28;20208;-73
2023/09/03 12:01:11;;;;;;;2.00;1.80;;;28.90;99.90;;;;;;5078604;28;20261;-72
2023/09/03 12:03:38;;;;;;;2.15;1.95;;;29.00;99.90;;;;;;5061565;28;20199;-73
2023/09/03 12:06:10;;;;;;;1.88;1.55;;;29.10;99.90;;;;;;5061331;28;20245;-73
2023/09/03 12:08:36;;;;;;;1.45;1.35;;;29.20;99.90;;;;;;5061245;28;20204;-72
2023/09/03 12:11:01;;;;;;;1.58;1.42;;;29.20;99.90;;;;;;5061301;28;20186;-73
2023/09/03 12:13:38;;;;;;;1.73;1.50;;;29.20;99.90;;;;;;5061191;28;20168;-73
2023/09/03 12:16:14;;;;;;;1.42;1.33;;;29.30;99.90;;;;;;5061647;28;20175;-73
2023/09/03 12:19:04;;;;;;;2.22;2.03;;;29.20;99.90;;;;;;5061144;28;20172;-73
2023/09/03 12:21:34;;;;;;;1.35;1.25;;;29.10;99.90;;;;;;5060705;28;20278;-72
2023/09/03 12:24:10;;;;;;;1.42;1.30;;;29.00;99.90;;;;;;5060672;28;20216;-73
2023/09/03 12:26:36;;;;;;;1.60;1.50;;;29.00;99.90;;;;;;5060729;28;20286;-74
2023/09/03 12:29:21;;;;;;;1.85;1.40;;;29.00;99.90;;;;;;5061226;28;20263;-73
2023/09/03 12:31:52;;;;;;;1.45;1.35;;;29.00;99.90;;;;;;5060773;28;20263;-73
2023/09/03 12:34:35;;;;;;;1.27;1.17;;;29.00;99.90;;;;;;5061136;28;20160;-73
2023/09/03 12:37:10;;;;;;;1.75;1.35;;;29.00;99.90;;;;;;5060744;28;20175;-73
2023/09/03 12:39:42;;;;;;;1.88;1.08;;;29.00;99.90;;;;;;5060854;28;20156;-72
2023/09/03 12:42:13;;;;;;;1.30;1.20;;;28.90;99.90;;;;;;5060673;28;20203;-73
2023/09/03 12:44:44;;;;;;;1.17;1.08;;;28.90;99.90;;;;;;5061063;28;20160;-73
2023/09/03 12:47:10;;;;;;;1.38;1.27;;;28.90;99.90;;;;;;5060426;28;20229;-74
2023/09/03 12:49:36;;;;;;;1.23;1.13;;;28.80;99.90;;;;;;5060740;28;20176;-73
2023/09/03 12:52:04;;;;;;;1.30;1.20;;;28.80;99.90;;;;;;5061962;28;20219;-74
2023/09/03 12:54:31;;;;;;;1.35;1.10;;;28.70;99.90;;;;;;5060363;28;20168;-73